sensor_id;sensor_type;location;lat;lon;timestamp;P1;durP1;ratioP1;P2;durP2;ratioP2
5493;SDS011;2769;49.864;8.656;2023-07-29T00:00:50;2.33;;;2.10;;
5493;SDS011;2769;49.864;8.656;2023-07-29T00:03:18;2.40;;;2.20;;
5493;SDS011;2769;49.864;8.656;2023-07-29T00:05:47;2.10;;;2.00;;
5493;SDS011;2769;49.864;8.656;2023-07-29T00:08:15;2.60;;;2.17;;
5493;SDS011;2769;49.864;8.656;2023-07-29T00:10:43;2.20;;;2.10;;
5493;SDS011;2769;49.864;8.656;2023-07-29T00:13:10;2.30;;;2.10;;
5493;SDS011;2769;49.864;8.656;2023-07-29T00:15:40;2.10;;;2.00;;
5493;SDS011;2769;49.864;8.656;2023-07-29T00:18:08;1.90;;;1.80;;
5493;SDS011;2769;49.864;8.656;2023-07-29T00:20:36;2.13;;;2.00;;
5493;SDS011;2769;49.864;8.656;2023-07-29T00:23:03;1.73;;;1.73;;
5493;SDS011;2769;49.864;8.656;2023-07-29T00:25:31;3.50;;;2.07;;
5493;SDS011;2769;49.864;8.656;2023-07-29T00:27:59;2.13;;;1.97;;
5493;SDS011;2769;49.864;8.656;2023-07-29T00:30:28;1.83;;;1.73;;
5493;SDS011;2769;49.864;8.656;2023-07-29T00:32:57;1.80;;;1.80;;
5493;SDS011;2769;49.864;8.656;2023-07-29T00:35:25;1.70;;;1.70;;
5493;SDS011;2769;49.864;8.656;2023-07-29T00:37:53;2.10;;;2.00;;
5493;SDS011;2769;49.864;8.656;2023-07-29T00:40:21;4.10;;;1.90;;
5493;SDS011;2769;49.864;8.656;2023-07-29T00:42:50;2.00;;;1.90;;
5493;SDS011;2769;49.864;8.656;2023-07-29T00:45:18;1.90;;;1.80;;
5493;SDS011;2769;49.864;8.656;2023-07-29T00:47:46;3.40;;;1.57;;
5493;SDS011;2769;49.864;8.656;2023-07-29T00:50:17;1.67;;;1.57;;
5493;SDS011;2769;49.864;8.656;2023-07-29T00:52:45;1.70;;;1.60;;
5493;SDS011;2769;49.864;8.656;2023-07-29T00:55:14;2.27;;;2.07;;
5493;SDS011;2769;49.864;8.656;2023-07-29T00:57:42;5.10;;;2.10;;
5493;SDS011;2769;49.864;8.656;2023-07-29T01:00:15;2.00;;;1.90;;
5493;SDS011;2769;49.864;8.656;2023-07-29T01:02:43;2.20;;;2.00;;
5493;SDS011;2769;49.864;8.656;2023-07-29T01:05:12;3.33;;;1.83;;
5493;SDS011;2769;49.864;8.656;2023-07-29T01:07:44;1.70;;;1.60;;
5493;SDS011;2769;49.864;8.656;2023-07-29T01:10:18;2.43;;;1.70;;
5493;SDS011;2769;49.864;8.656;2023-07-29T01:12:51;1.43;;;1.43;;
5493;SDS011;2769;49.864;8.656;2023-07-29T01:15:28;1.57;;;1.47;;
5493;SDS011;2769;49.864;8.656;2023-07-29T01:18:01;1.83;;;1.70;;
5493;SDS011;2769;49.864;8.656;2023-07-29T01:20:33;1.40;;;1.30;;
5493;SDS011;2769;49.864;8.656;2023-07-29T01:23:03;1.97;;;1.87;;
5493;SDS011;2769;49.864;8.656;2023-07-29T01:25:32;3.17;;;1.40;;
5493;SDS011;2769;49.864;8.656;2023-07-29T01:28:00;2.40;;;1.40;;
5493;SDS011;2769;49.864;8.656;2023-07-29T01:30:30;1.20;;;1.20;;
5493;SDS011;2769;49.864;8.656;2023-07-29T01:33:03;3.83;;;1.60;;
5493;SDS011;2769;49.864;8.656;2023-07-29T01:35:36;1.40;;;1.40;;
5493;SDS011;2769;49.864;8.656;2023-07-29T01:38:09;1.50;;;1.40;;
5493;SDS011;2769;49.864;8.656;2023-07-29T01:40:42;1.40;;;1.40;;
5493;SDS011;2769;49.864;8.656;2023-07-29T01:43:11;1.77;;;1.67;;
5493;SDS011;2769;49.864;8.656;2023-07-29T01:45:39;2.83;;;1.70;;
5493;SDS011;2769;49.864;8.656;2023-07-29T01:48:07;2.13;;;1.40;;
5493;SDS011;2769;49.864;8.656;2023-07-29T01:50:36;1.40;;;1.30;;
5493;SDS011;2769;49.864;8.656;2023-07-29T01:53:04;1.70;;;1.60;;
5493;SDS011;2769;49.864;8.656;2023-07-29T01:55:31;2.00;;;1.77;;
5493;SDS011;2769;49.864;8.656;2023-07-29T01:58:01;1.43;;;1.30;;
5493;SDS011;2769;49.864;8.656;2023-07-29T02:00:30;3.23;;;1.33;;
5493;SDS011;2769;49.864;8.656;2023-07-29T02:02:58;1.67;;;1.60;;
5493;SDS011;2769;49.864;8.656;2023-07-29T02:05:26;1.40;;;1.40;;
5493;SDS011;2769;49.864;8.656;2023-07-29T02:07:54;1.40;;;1.40;;
5493;SDS011;2769;49.864;8.656;2023-07-29T02:10:23;3.80;;;1.50;;
5493;SDS011;2769;49.864;8.656;2023-07-29T02:12:51;2.37;;;1.73;;
5493;SDS011;2769;49.864;8.656;2023-07-29T02:15:21;1.60;;;1.43;;
5493;SDS011;2769;49.864;8.656;2023-07-29T02:17:49;1.70;;;1.70;;
5493;SDS011;2769;49.864;8.656;2023-07-29T02:20:17;3.57;;;1.50;;
5493;SDS011;2769;49.864;8.656;2023-07-29T02:22:46;1.33;;;1.23;;
5493;SDS011;2769;49.864;8.656;2023-07-29T02:25:15;1.33;;;1.33;;
5493;SDS011;2769;49.864;8.656;2023-07-29T02:27:43;1.60;;;1.50;;
5493;SDS011;2769;49.864;8.656;2023-07-29T02:30:11;3.20;;;1.53;;
5493;SDS011;2769;49.864;8.656;2023-07-29T02:32:40;1.30;;;1.30;;
5493;SDS011;2769;49.864;8.656;2023-07-29T02:35:09;3.50;;;1.40;;
5493;SDS011;2769;49.864;8.656;2023-07-29T02:37:37;1.80;;;1.70;;
5493;SDS011;2769;49.864;8.656;2023-07-29T02:40:05;1.73;;;1.63;;
5493;SDS011;2769;49.864;8.656;2023-07-29T02:42:35;1.50;;;1.40;;
5493;SDS011;2769;49.864;8.656;2023-07-29T02:45:03;4.03;;;1.87;;
5493;SDS011;2769;49.864;8.656;2023-07-29T02:47:36;1.60;;;1.50;;
5493;SDS011;2769;49.864;8.656;2023-07-29T02:50:06;2.00;;;1.33;;
5493;SDS011;2769;49.864;8.656;2023-07-29T02:52:34;1.63;;;1.53;;
5493;SDS011;2769;49.864;8.656;2023-07-29T02:55:02;1.80;;;1.70;;
5493;SDS011;2769;49.864;8.656;2023-07-29T02:57:30;2.20;;;1.83;;
5493;SDS011;2769;49.864;8.656;2023-07-29T02:59:58;2.30;;;1.60;;
5493;SDS011;2769;49.864;8.656;2023-07-29T03:02:27;1.50;;;1.40;;
5493;SDS011;2769;49.864;8.656;2023-07-29T03:04:56;1.70;;;1.60;;
5493;SDS011;2769;49.864;8.656;2023-07-29T03:07:25;2.10;;;1.90;;
5493;SDS011;2769;49.864;8.656;2023-07-29T03:09:53;2.27;;;2.17;;
5493;SDS011;2769;49.864;8.656;2023-07-29T03:12:21;3.03;;;1.43;;
5493;SDS011;2769;49.864;8.656;2023-07-29T03:14:49;1.90;;;1.80;;
5493;SDS011;2769;49.864;8.656;2023-07-29T03:17:17;1.60;;;1.50;;
5493;SDS011;2769;49.864;8.656;2023-07-29T03:19:45;1.33;;;1.33;;
5493;SDS011;2769;49.864;8.656;2023-07-29T03:22:13;1.70;;;1.40;;
5493;SDS011;2769;49.864;8.656;2023-07-29T03:24:42;1.40;;;1.40;;
5493;SDS011;2769;49.864;8.656;2023-07-29T03:27:10;4.50;;;1.60;;
5493;SDS011;2769;49.864;8.656;2023-07-29T03:29:38;2.60;;;1.87;;
5493;SDS011;2769;49.864;8.656;2023-07-29T03:32:06;1.80;;;1.70;;
5493;SDS011;2769;49.864;8.656;2023-07-29T03:34:34;1.67;;;1.60;;
5493;SDS011;2769;49.864;8.656;2023-07-29T03:37:02;2.00;;;1.90;;
5493;SDS011;2769;49.864;8.656;2023-07-29T03:39:31;1.57;;;1.57;;
5493;SDS011;2769;49.864;8.656;2023-07-29T03:42:01;1.60;;;1.50;;
5493;SDS011;2769;49.864;8.656;2023-07-29T03:44:30;2.40;;;2.20;;
5493;SDS011;2769;49.864;8.656;2023-07-29T03:46:59;3.17;;;1.93;;
5493;SDS011;2769;49.864;8.656;2023-07-29T03:49:27;1.90;;;1.90;;
5493;SDS011;2769;49.864;8.656;2023-07-29T03:51:55;1.93;;;1.83;;
5493;SDS011;2769;49.864;8.656;2023-07-29T03:54:23;2.33;;;2.13;;
5493;SDS011;2769;49.864;8.656;2023-07-29T03:56:51;3.53;;;1.57;;
5493;SDS011;2769;49.864;8.656;2023-07-29T03:59:20;1.90;;;1.90;;
5493;SDS011;2769;49.864;8.656;2023-07-29T04:01:49;1.97;;;1.87;;
5493;SDS011;2769;49.864;8.656;2023-07-29T04:04:17;2.20;;;2.10;;
5493;SDS011;2769;49.864;8.656;2023-07-29T04:06:46;2.10;;;2.00;;
5493;SDS011;2769;49.864;8.656;2023-07-29T04:09:14;2.37;;;2.17;;
5493;SDS011;2769;49.864;8.656;2023-07-29T04:11:43;2.50;;;2.30;;
5493;SDS011;2769;49.864;8.656;2023-07-29T04:14:11;3.17;;;2.13;;
5493;SDS011;2769;49.864;8.656;2023-07-29T04:16:40;2.80;;;2.57;;
5493;SDS011;2769;49.864;8.656;2023-07-29T04:19:08;5.07;;;2.47;;
5493;SDS011;2769;49.864;8.656;2023-07-29T04:21:36;2.20;;;1.93;;
5493;SDS011;2769;49.864;8.656;2023-07-29T04:24:04;2.00;;;1.90;;
5493;SDS011;2769;49.864;8.656;2023-07-29T04:26:32;3.90;;;2.20;;
5493;SDS011;2769;49.864;8.656;2023-07-29T04:29:01;1.97;;;1.87;;
5493;SDS011;2769;49.864;8.656;2023-07-29T04:31:29;2.07;;;1.90;;
5493;SDS011;2769;49.864;8.656;2023-07-29T04:33:58;4.00;;;2.20;;
5493;SDS011;2769;49.864;8.656;2023-07-29T04:36:26;2.00;;;1.90;;
5493;SDS011;2769;49.864;8.656;2023-07-29T04:38:54;2.33;;;2.23;;
5493;SDS011;2769;49.864;8.656;2023-07-29T04:41:22;2.57;;;2.27;;
5493;SDS011;2769;49.864;8.656;2023-07-29T04:43:50;8.30;;;2.40;;
5493;SDS011;2769;49.864;8.656;2023-07-29T04:46:18;2.27;;;2.10;;
5493;SDS011;2769;49.864;8.656;2023-07-29T04:48:47;2.60;;;2.40;;
5493;SDS011;2769;49.864;8.656;2023-07-29T04:51:16;2.30;;;2.20;;
5493;SDS011;2769;49.864;8.656;2023-07-29T04:53:44;2.70;;;2.20;;
5493;SDS011;2769;49.864;8.656;2023-07-29T04:56:12;2.40;;;2.00;;
5493;SDS011;2769;49.864;8.656;2023-07-29T04:58:44;2.37;;;2.23;;
5493;SDS011;2769;49.864;8.656;2023-07-29T05:01:12;5.03;;;2.10;;
5493;SDS011;2769;49.864;8.656;2023-07-29T05:03:40;2.37;;;2.27;;
5493;SDS011;2769;49.864;8.656;2023-07-29T05:06:08;2.47;;;2.00;;
5493;SDS011;2769;49.864;8.656;2023-07-29T05:08:37;2.90;;;2.40;;
5493;SDS011;2769;49.864;8.656;2023-07-29T05:11:05;2.37;;;2.27;;
5493;SDS011;2769;49.864;8.656;2023-07-29T05:13:33;2.70;;;2.50;;
5493;SDS011;2769;49.864;8.656;2023-07-29T05:16:02;2.00;;;1.90;;
5493;SDS011;2769;49.864;8.656;2023-07-29T05:18:30;2.07;;;1.97;;
5493;SDS011;2769;49.864;8.656;2023-07-29T05:20:58;2.53;;;2.43;;
5493;SDS011;2769;49.864;8.656;2023-07-29T05:23:26;2.30;;;2.20;;
5493;SDS011;2769;49.864;8.656;2023-07-29T05:25:55;2.30;;;2.13;;
5493;SDS011;2769;49.864;8.656;2023-07-29T05:28:23;6.00;;;2.10;;
5493;SDS011;2769;49.864;8.656;2023-07-29T05:30:51;2.13;;;2.03;;
5493;SDS011;2769;49.864;8.656;2023-07-29T05:33:19;2.47;;;2.37;;
5493;SDS011;2769;49.864;8.656;2023-07-29T05:35:48;2.30;;;2.20;;
5493;SDS011;2769;49.864;8.656;2023-07-29T05:38:16;2.10;;;2.00;;
5493;SDS011;2769;49.864;8.656;2023-07-29T05:40:43;1.90;;;1.80;;
5493;SDS011;2769;49.864;8.656;2023-07-29T05:43:14;2.10;;;2.03;;
5493;SDS011;2769;49.864;8.656;2023-07-29T05:45:42;4.00;;;2.37;;
5493;SDS011;2769;49.864;8.656;2023-07-29T05:48:10;6.10;;;2.20;;
5493;SDS011;2769;49.864;8.656;2023-07-29T05:50:38;1.80;;;1.70;;
5493;SDS011;2769;49.864;8.656;2023-07-29T05:53:07;2.27;;;2.03;;
5493;SDS011;2769;49.864;8.656;2023-07-29T05:55:35;2.40;;;2.20;;
5493;SDS011;2769;49.864;8.656;2023-07-29T05:58:03;2.13;;;2.03;;
5493;SDS011;2769;49.864;8.656;2023-07-29T06:00:33;1.80;;;1.70;;
5493;SDS011;2769;49.864;8.656;2023-07-29T06:03:01;4.10;;;2.30;;
5493;SDS011;2769;49.864;8.656;2023-07-29T06:05:29;2.30;;;2.10;;
5493;SDS011;2769;49.864;8.656;2023-07-29T06:07:57;1.90;;;1.80;;
5493;SDS011;2769;49.864;8.656;2023-07-29T06:10:25;2.50;;;2.40;;
5493;SDS011;2769;49.864;8.656;2023-07-29T06:12:53;2.10;;;2.00;;
5493;SDS011;2769;49.864;8.656;2023-07-29T06:15:21;2.10;;;2.00;;
5493;SDS011;2769;49.864;8.656;2023-07-29T06:17:51;2.30;;;2.20;;
5493;SDS011;2769;49.864;8.656;2023-07-29T06:20:22;2.60;;;2.40;;
5493;SDS011;2769;49.864;8.656;2023-07-29T06:22:50;2.50;;;2.30;;
5493;SDS011;2769;49.864;8.656;2023-07-29T06:25:19;4.17;;;2.33;;
5493;SDS011;2769;49.864;8.656;2023-07-29T06:27:47;4.93;;;2.20;;
5493;SDS011;2769;49.864;8.656;2023-07-29T06:30:15;2.50;;;2.40;;
5493;SDS011;2769;49.864;8.656;2023-07-29T06:32:43;5.40;;;2.13;;
5493;SDS011;2769;49.864;8.656;2023-07-29T06:35:13;2.80;;;2.70;;
5493;SDS011;2769;49.864;8.656;2023-07-29T06:37:40;2.63;;;2.50;;
5493;SDS011;2769;49.864;8.656;2023-07-29T06:40:09;3.10;;;2.87;;
5493;SDS011;2769;49.864;8.656;2023-07-29T06:42:37;6.03;;;3.17;;
5493;SDS011;2769;49.864;8.656;2023-07-29T06:45:06;3.57;;;3.20;;
5493;SDS011;2769;49.864;8.656;2023-07-29T06:47:37;3.93;;;3.63;;
5493;SDS011;2769;49.864;8.656;2023-07-29T06:50:05;4.13;;;3.93;;
5493;SDS011;2769;49.864;8.656;2023-07-29T06:52:35;4.90;;;4.50;;
5493;SDS011;2769;49.864;8.656;2023-07-29T06:55:03;4.70;;;4.40;;
5493;SDS011;2769;49.864;8.656;2023-07-29T06:57:31;5.23;;;4.83;;
5493;SDS011;2769;49.864;8.656;2023-07-29T06:59:59;5.07;;;4.53;;
5493;SDS011;2769;49.864;8.656;2023-07-29T07:02:27;4.53;;;4.23;;
5493;SDS011;2769;49.864;8.656;2023-07-29T07:04:55;4.77;;;4.43;;
5493;SDS011;2769;49.864;8.656;2023-07-29T07:07:26;4.00;;;3.70;;
5493;SDS011;2769;49.864;8.656;2023-07-29T07:09:55;4.63;;;4.30;;
5493;SDS011;2769;49.864;8.656;2023-07-29T07:12:26;4.40;;;4.10;;
5493;SDS011;2769;49.864;8.656;2023-07-29T07:14:54;6.47;;;4.87;;
5493;SDS011;2769;49.864;8.656;2023-07-29T07:17:22;4.20;;;3.60;;
5493;SDS011;2769;49.864;8.656;2023-07-29T07:19:50;7.00;;;3.90;;
5493;SDS011;2769;49.864;8.656;2023-07-29T07:22:18;6.23;;;3.30;;
5493;SDS011;2769;49.864;8.656;2023-07-29T07:24:46;3.40;;;3.20;;
5493;SDS011;2769;49.864;8.656;2023-07-29T07:27:16;2.83;;;2.73;;
5493;SDS011;2769;49.864;8.656;2023-07-29T07:29:44;2.43;;;2.33;;
5493;SDS011;2769;49.864;8.656;2023-07-29T07:32:11;2.80;;;2.70;;
5493;SDS011;2769;49.864;8.656;2023-07-29T07:34:40;2.50;;;2.30;;
5493;SDS011;2769;49.864;8.656;2023-07-29T07:37:07;2.30;;;2.20;;
5493;SDS011;2769;49.864;8.656;2023-07-29T07:39:35;2.00;;;1.90;;
5493;SDS011;2769;49.864;8.656;2023-07-29T07:42:04;2.00;;;1.90;;
5493;SDS011;2769;49.864;8.656;2023-07-29T07:44:33;2.40;;;2.20;;
5493;SDS011;2769;49.864;8.656;2023-07-29T07:47:01;1.77;;;1.67;;
5493;SDS011;2769;49.864;8.656;2023-07-29T07:49:30;3.10;;;1.83;;
5493;SDS011;2769;49.864;8.656;2023-07-29T07:51:58;1.60;;;1.50;;
5493;SDS011;2769;49.864;8.656;2023-07-29T07:54:26;2.83;;;1.60;;
5493;SDS011;2769;49.864;8.656;2023-07-29T07:56:54;1.87;;;1.70;;
5493;SDS011;2769;49.864;8.656;2023-07-29T07:59:22;2.97;;;2.00;;
5493;SDS011;2769;49.864;8.656;2023-07-29T08:01:51;1.83;;;1.73;;
5493;SDS011;2769;49.864;8.656;2023-07-29T08:04:19;1.63;;;1.53;;
5493;SDS011;2769;49.864;8.656;2023-07-29T08:06:48;1.77;;;1.60;;
5493;SDS011;2769;49.864;8.656;2023-07-29T08:09:16;1.67;;;1.63;;
5493;SDS011;2769;49.864;8.656;2023-07-29T08:11:44;2.00;;;1.90;;
5493;SDS011;2769;49.864;8.656;2023-07-29T08:14:12;3.10;;;2.03;;
5493;SDS011;2769;49.864;8.656;2023-07-29T08:16:40;2.10;;;1.87;;
5493;SDS011;2769;49.864;8.656;2023-07-29T08:19:10;2.90;;;1.83;;
5493;SDS011;2769;49.864;8.656;2023-07-29T08:21:38;6.33;;;2.00;;
5493;SDS011;2769;49.864;8.656;2023-07-29T08:24:06;1.70;;;1.60;;
5493;SDS011;2769;49.864;8.656;2023-07-29T08:26:34;3.50;;;1.90;;
5493;SDS011;2769;49.864;8.656;2023-07-29T08:29:03;1.80;;;1.70;;
5493;SDS011;2769;49.864;8.656;2023-07-29T08:31:36;1.37;;;1.27;;
5493;SDS011;2769;49.864;8.656;2023-07-29T08:34:04;2.20;;;1.80;;
5493;SDS011;2769;49.864;8.656;2023-07-29T08:36:34;1.83;;;1.73;;
5493;SDS011;2769;49.864;8.656;2023-07-29T08:39:02;2.33;;;2.10;;
5493;SDS011;2769;49.864;8.656;2023-07-29T08:41:31;3.40;;;2.30;;
5493;SDS011;2769;49.864;8.656;2023-07-29T08:44:05;2.30;;;2.20;;
5493;SDS011;2769;49.864;8.656;2023-07-29T08:46:38;3.63;;;2.10;;
5493;SDS011;2769;49.864;8.656;2023-07-29T08:49:07;3.30;;;2.03;;
5493;SDS011;2769;49.864;8.656;2023-07-29T08:51:36;3.83;;;1.90;;
5493;SDS011;2769;49.864;8.656;2023-07-29T08:54:05;2.30;;;2.20;;
5493;SDS011;2769;49.864;8.656;2023-07-29T08:56:33;2.40;;;2.30;;
5493;SDS011;2769;49.864;8.656;2023-07-29T08:59:02;1.80;;;1.80;;
5493;SDS011;2769;49.864;8.656;2023-07-29T09:01:31;2.27;;;2.07;;
5493;SDS011;2769;49.864;8.656;2023-07-29T09:04:00;5.30;;;2.40;;
5493;SDS011;2769;49.864;8.656;2023-07-29T09:06:28;2.37;;;2.20;;
5493;SDS011;2769;49.864;8.656;2023-07-29T09:08:57;8.37;;;2.67;;
5493;SDS011;2769;49.864;8.656;2023-07-29T09:11:26;7.43;;;2.73;;
5493;SDS011;2769;49.864;8.656;2023-07-29T09:13:54;4.80;;;2.20;;
5493;SDS011;2769;49.864;8.656;2023-07-29T09:16:23;3.80;;;1.80;;
5493;SDS011;2769;49.864;8.656;2023-07-29T09:18:51;2.87;;;1.80;;
5493;SDS011;2769;49.864;8.656;2023-07-29T09:21:22;3.00;;;1.80;;
5493;SDS011;2769;49.864;8.656;2023-07-29T09:23:51;1.57;;;1.57;;
5493;SDS011;2769;49.864;8.656;2023-07-29T09:26:23;1.93;;;1.70;;
5493;SDS011;2769;49.864;8.656;2023-07-29T09:28:52;5.10;;;1.70;;
5493;SDS011;2769;49.864;8.656;2023-07-29T09:31:21;1.57;;;1.47;;
5493;SDS011;2769;49.864;8.656;2023-07-29T09:33:49;1.47;;;1.40;;
5493;SDS011;2769;49.864;8.656;2023-07-29T09:36:17;2.70;;;1.60;;
5493;SDS011;2769;49.864;8.656;2023-07-29T09:38:50;1.00;;;0.90;;
5493;SDS011;2769;49.864;8.656;2023-07-29T09:41:23;1.37;;;1.30;;
5493;SDS011;2769;49.864;8.656;2023-07-29T09:43:55;1.20;;;1.20;;
5493;SDS011;2769;49.864;8.656;2023-07-29T09:46:24;2.00;;;1.40;;
5493;SDS011;2769;49.864;8.656;2023-07-29T09:48:53;1.20;;;1.10;;
5493;SDS011;2769;49.864;8.656;2023-07-29T09:51:23;1.10;;;1.10;;
5493;SDS011;2769;49.864;8.656;2023-07-29T09:53:51;1.53;;;0.97;;
5493;SDS011;2769;49.864;8.656;2023-07-29T09:56:25;4.20;;;1.10;;
5493;SDS011;2769;49.864;8.656;2023-07-29T09:58:55;4.70;;;1.20;;
5493;SDS011;2769;49.864;8.656;2023-07-29T10:01:23;0.83;;;0.83;;
5493;SDS011;2769;49.864;8.656;2023-07-29T10:03:51;0.90;;;0.90;;
5493;SDS011;2769;49.864;8.656;2023-07-29T10:06:22;2.63;;;1.07;;
5493;SDS011;2769;49.864;8.656;2023-07-29T10:08:50;2.33;;;1.10;;
5493;SDS011;2769;49.864;8.656;2023-07-29T10:11:19;2.70;;;1.03;;
5493;SDS011;2769;49.864;8.656;2023-07-29T10:13:50;1.43;;;1.20;;
5493;SDS011;2769;49.864;8.656;2023-07-29T10:16:34;3.70;;;1.53;;
5493;SDS011;2769;49.864;8.656;2023-07-29T10:19:02;1.30;;;1.20;;
5493;SDS011;2769;49.864;8.656;2023-07-29T10:21:32;1.47;;;1.37;;
5493;SDS011;2769;49.864;8.656;2023-07-29T10:24:01;0.93;;;0.93;;
5493;SDS011;2769;49.864;8.656;2023-07-29T10:26:31;1.10;;;1.10;;
5493;SDS011;2769;49.864;8.656;2023-07-29T10:29:01;1.30;;;1.20;;
5493;SDS011;2769;49.864;8.656;2023-07-29T10:31:32;2.40;;;1.00;;
5493;SDS011;2769;49.864;8.656;2023-07-29T10:34:00;1.27;;;1.17;;
5493;SDS011;2769;49.864;8.656;2023-07-29T10:36:30;1.47;;;1.47;;
5493;SDS011;2769;49.864;8.656;2023-07-29T10:38:58;1.07;;;0.97;;
5493;SDS011;2769;49.864;8.656;2023-07-29T10:41:41;1.67;;;1.00;;
5493;SDS011;2769;49.864;8.656;2023-07-29T10:47:17;1.47;;;0.97;;
5493;SDS011;2769;49.864;8.656;2023-07-29T10:49:47;1.30;;;1.20;;
5493;SDS011;2769;49.864;8.656;2023-07-29T10:52:27;1.63;;;1.53;;
5493;SDS011;2769;49.864;8.656;2023-07-29T10:54:56;2.40;;;1.30;;
5493;SDS011;2769;49.864;8.656;2023-07-29T10:57:30;4.47;;;1.40;;
5493;SDS011;2769;49.864;8.656;2023-07-29T11:00:00;1.20;;;1.20;;
5493;SDS011;2769;49.864;8.656;2023-07-29T11:02:29;1.60;;;1.50;;
5493;SDS011;2769;49.864;8.656;2023-07-29T11:04:59;1.33;;;1.33;;
5493;SDS011;2769;49.864;8.656;2023-07-29T11:07:28;2.60;;;1.30;;
5493;SDS011;2769;49.864;8.656;2023-07-29T11:09:57;1.87;;;1.70;;
5493;SDS011;2769;49.864;8.656;2023-07-29T11:12:39;2.67;;;1.50;;
5493;SDS011;2769;49.864;8.656;2023-07-29T11:15:17;1.47;;;1.40;;
5493;SDS011;2769;49.864;8.656;2023-07-29T11:17:47;2.97;;;1.70;;
5493;SDS011;2769;49.864;8.656;2023-07-29T11:20:17;1.40;;;1.30;;
5493;SDS011;2769;49.864;8.656;2023-07-29T11:22:46;2.03;;;1.80;;
5493;SDS011;2769;49.864;8.656;2023-07-29T11:25:14;2.07;;;1.97;;
5493;SDS011;2769;49.864;8.656;2023-07-29T11:27:43;2.63;;;1.70;;
5493;SDS011;2769;49.864;8.656;2023-07-29T11:30:12;1.60;;;1.50;;
5493;SDS011;2769;49.864;8.656;2023-07-29T11:32:43;1.50;;;1.40;;
5493;SDS011;2769;49.864;8.656;2023-07-29T11:35:12;1.87;;;1.70;;
5493;SDS011;2769;49.864;8.656;2023-07-29T11:37:42;5.23;;;1.43;;
5493;SDS011;2769;49.864;8.656;2023-07-29T11:40:13;4.73;;;1.83;;
5493;SDS011;2769;49.864;8.656;2023-07-29T11:42:42;1.73;;;1.47;;
5493;SDS011;2769;49.864;8.656;2023-07-29T11:45:10;1.80;;;1.30;;
5493;SDS011;2769;49.864;8.656;2023-07-29T11:47:43;1.90;;;1.80;;
5493;SDS011;2769;49.864;8.656;2023-07-29T11:50:12;1.70;;;1.60;;
5493;SDS011;2769;49.864;8.656;2023-07-29T11:52:43;2.60;;;1.70;;
5493;SDS011;2769;49.864;8.656;2023-07-29T11:55:15;4.80;;;1.60;;
5493;SDS011;2769;49.864;8.656;2023-07-29T11:57:43;2.93;;;1.20;;
5493;SDS011;2769;49.864;8.656;2023-07-29T12:00:11;1.20;;;1.10;;
5493;SDS011;2769;49.864;8.656;2023-07-29T12:02:45;2.20;;;1.30;;
5493;SDS011;2769;49.864;8.656;2023-07-29T12:05:14;1.37;;;1.23;;
5493;SDS011;2769;49.864;8.656;2023-07-29T12:07:43;2.83;;;1.60;;
5493;SDS011;2769;49.864;8.656;2023-07-29T12:10:12;1.33;;;1.27;;
5493;SDS011;2769;49.864;8.656;2023-07-29T12:12:46;1.63;;;1.53;;
5493;SDS011;2769;49.864;8.656;2023-07-29T12:15:22;3.23;;;1.40;;
5493;SDS011;2769;49.864;8.656;2023-07-29T12:17:53;1.40;;;1.23;;
5493;SDS011;2769;49.864;8.656;2023-07-29T12:20:24;1.73;;;1.63;;
5493;SDS011;2769;49.864;8.656;2023-07-29T12:22:53;2.20;;;1.53;;
5493;SDS011;2769;49.864;8.656;2023-07-29T12:25:21;1.43;;;1.33;;
5493;SDS011;2769;49.864;8.656;2023-07-29T12:27:49;2.97;;;1.10;;
5493;SDS011;2769;49.864;8.656;2023-07-29T12:30:20;2.07;;;1.40;;
5493;SDS011;2769;49.864;8.656;2023-07-29T12:32:48;1.80;;;1.70;;
5493;SDS011;2769;49.864;8.656;2023-07-29T12:35:17;1.87;;;1.37;;
5493;SDS011;2769;49.864;8.656;2023-07-29T12:37:45;1.47;;;1.13;;
5493;SDS011;2769;49.864;8.656;2023-07-29T12:40:22;1.20;;;1.20;;
5493;SDS011;2769;49.864;8.656;2023-07-29T12:42:51;1.40;;;1.40;;
5493;SDS011;2769;49.864;8.656;2023-07-29T12:45:19;1.20;;;1.20;;
5493;SDS011;2769;49.864;8.656;2023-07-29T12:47:49;1.30;;;1.30;;
5493;SDS011;2769;49.864;8.656;2023-07-29T12:50:19;1.20;;;1.20;;
5493;SDS011;2769;49.864;8.656;2023-07-29T12:52:47;1.30;;;1.30;;
5493;SDS011;2769;49.864;8.656;2023-07-29T12:55:15;1.10;;;1.10;;
5493;SDS011;2769;49.864;8.656;2023-07-29T12:57:49;1.20;;;1.20;;
5493;SDS011;2769;49.864;8.656;2023-07-29T13:00:18;1.53;;;1.43;;
5493;SDS011;2769;49.864;8.656;2023-07-29T13:02:46;4.63;;;1.00;;
5493;SDS011;2769;49.864;8.656;2023-07-29T13:05:14;2.67;;;1.57;;
5493;SDS011;2769;49.864;8.656;2023-07-29T13:07:44;1.50;;;1.50;;
5493;SDS011;2769;49.864;8.656;2023-07-29T13:10:12;1.10;;;1.10;;
5493;SDS011;2769;49.864;8.656;2023-07-29T13:12:40;1.23;;;1.23;;
5493;SDS011;2769;49.864;8.656;2023-07-29T13:15:08;1.00;;;1.00;;
5493;SDS011;2769;49.864;8.656;2023-07-29T13:17:37;2.53;;;1.40;;
5493;SDS011;2769;49.864;8.656;2023-07-29T13:20:06;1.10;;;1.10;;
5493;SDS011;2769;49.864;8.656;2023-07-29T13:22:35;1.10;;;1.10;;
5493;SDS011;2769;49.864;8.656;2023-07-29T13:25:04;1.90;;;1.37;;
5493;SDS011;2769;49.864;8.656;2023-07-29T13:27:32;1.17;;;1.00;;
5493;SDS011;2769;49.864;8.656;2023-07-29T13:30:00;1.33;;;1.33;;
5493;SDS011;2769;49.864;8.656;2023-07-29T13:32:28;1.33;;;1.33;;
5493;SDS011;2769;49.864;8.656;2023-07-29T13:34:56;1.40;;;1.30;;
5493;SDS011;2769;49.864;8.656;2023-07-29T13:37:24;1.30;;;1.20;;
5493;SDS011;2769;49.864;8.656;2023-07-29T13:39:52;1.40;;;1.30;;
5493;SDS011;2769;49.864;8.656;2023-07-29T13:42:21;1.20;;;1.20;;
5493;SDS011;2769;49.864;8.656;2023-07-29T13:44:49;1.07;;;1.07;;
5493;SDS011;2769;49.864;8.656;2023-07-29T13:47:17;1.23;;;1.00;;
5493;SDS011;2769;49.864;8.656;2023-07-29T13:49:45;1.27;;;1.17;;
5493;SDS011;2769;49.864;8.656;2023-07-29T13:52:13;1.83;;;1.20;;
5493;SDS011;2769;49.864;8.656;2023-07-29T13:54:41;1.90;;;1.13;;
5493;SDS011;2769;49.864;8.656;2023-07-29T13:57:09;1.67;;;1.37;;
5493;SDS011;2769;49.864;8.656;2023-07-29T13:59:39;1.33;;;1.23;;
5493;SDS011;2769;49.864;8.656;2023-07-29T14:02:07;1.33;;;1.23;;
5493;SDS011;2769;49.864;8.656;2023-07-29T14:04:35;1.47;;;1.47;;
5493;SDS011;2769;49.864;8.656;2023-07-29T14:07:03;1.53;;;1.43;;
5493;SDS011;2769;49.864;8.656;2023-07-29T14:09:32;1.30;;;1.30;;
5493;SDS011;2769;49.864;8.656;2023-07-29T14:12:00;1.30;;;1.30;;
5493;SDS011;2769;49.864;8.656;2023-07-29T14:14:28;1.77;;;1.30;;
5493;SDS011;2769;49.864;8.656;2023-07-29T14:16:57;1.50;;;1.40;;
5493;SDS011;2769;49.864;8.656;2023-07-29T14:19:25;1.40;;;1.40;;
5493;SDS011;2769;49.864;8.656;2023-07-29T14:21:53;1.37;;;1.37;;
5493;SDS011;2769;49.864;8.656;2023-07-29T14:24:22;1.20;;;1.20;;
5493;SDS011;2769;49.864;8.656;2023-07-29T14:26:50;1.30;;;1.30;;
5493;SDS011;2769;49.864;8.656;2023-07-29T14:29:18;1.70;;;1.60;;
5493;SDS011;2769;49.864;8.656;2023-07-29T14:31:46;3.23;;;1.40;;
5493;SDS011;2769;49.864;8.656;2023-07-29T14:34:15;1.60;;;1.50;;
5493;SDS011;2769;49.864;8.656;2023-07-29T14:36:43;1.77;;;1.23;;
5493;SDS011;2769;49.864;8.656;2023-07-29T14:39:12;1.47;;;1.43;;
5493;SDS011;2769;49.864;8.656;2023-07-29T14:41:40;1.73;;;1.50;;
5493;SDS011;2769;49.864;8.656;2023-07-29T14:44:08;1.70;;;1.60;;
5493;SDS011;2769;49.864;8.656;2023-07-29T14:46:36;4.53;;;1.60;;
5493;SDS011;2769;49.864;8.656;2023-07-29T14:49:04;1.40;;;1.30;;
5493;SDS011;2769;49.864;8.656;2023-07-29T14:51:34;1.53;;;1.43;;
5493;SDS011;2769;49.864;8.656;2023-07-29T14:54:02;1.47;;;1.47;;
5493;SDS011;2769;49.864;8.656;2023-07-29T14:56:30;9.70;;;2.10;;
5493;SDS011;2769;49.864;8.656;2023-07-29T14:59:01;1.73;;;1.63;;
5493;SDS011;2769;49.864;8.656;2023-07-29T15:01:29;1.70;;;1.63;;
5493;SDS011;2769;49.864;8.656;2023-07-29T15:03:57;1.57;;;1.30;;
5493;SDS011;2769;49.864;8.656;2023-07-29T15:06:25;1.73;;;1.57;;
5493;SDS011;2769;49.864;8.656;2023-07-29T15:08:54;1.37;;;1.37;;
5493;SDS011;2769;49.864;8.656;2023-07-29T15:11:22;4.63;;;1.77;;
5493;SDS011;2769;49.864;8.656;2023-07-29T15:13:50;1.90;;;1.70;;
5493;SDS011;2769;49.864;8.656;2023-07-29T15:16:19;2.70;;;1.90;;
5493;SDS011;2769;49.864;8.656;2023-07-29T15:18:47;2.10;;;1.90;;
5493;SDS011;2769;49.864;8.656;2023-07-29T15:21:14;3.50;;;3.20;;
5493;SDS011;2769;49.864;8.656;2023-07-29T15:23:44;5.37;;;4.87;;
5493;SDS011;2769;49.864;8.656;2023-07-29T15:26:14;3.23;;;3.03;;
5493;SDS011;2769;49.864;8.656;2023-07-29T15:28:42;6.73;;;3.50;;